地図

経路データ

SID SEASON NUMBER BASIN SUBBASIN NAME ISO_TIME NATURE LAT LON WMO_WIND WMO_PRES WMO_AGENCY TRACK_TYPE DIST2LAND LANDFALL IFLAG USA_AGENCY USA_ATCF_ID USA_LAT USA_LON USA_RECORD USA_STATUS USA_WIND USA_PRES USA_SSHS USA_R34_NE USA_R34_SE USA_R34_SW USA_R34_NW USA_R50_NE USA_R50_SE USA_R50_SW USA_R50_NW USA_R64_NE USA_R64_SE USA_R64_SW USA_R64_NW USA_POCI USA_ROCI USA_RMW USA_EYE TOKYO_LAT TOKYO_LON TOKYO_GRADE TOKYO_WIND TOKYO_PRES TOKYO_R50_DIR TOKYO_R50_LONG TOKYO_R50_SHORT TOKYO_R30_DIR TOKYO_R30_LONG TOKYO_R30_SHORT TOKYO_LAND CMA_LAT CMA_LON CMA_CAT CMA_WIND CMA_PRES HKO_LAT HKO_LON HKO_CAT HKO_WIND HKO_PRES NEWDELHI_LAT NEWDELHI_LON NEWDELHI_GRADE NEWDELHI_WIND NEWDELHI_PRES NEWDELHI_CI NEWDELHI_DP NEWDELHI_POCI REUNION_LAT REUNION_LON REUNION_TYPE REUNION_WIND REUNION_PRES REUNION_TNUM REUNION_CI REUNION_RMW REUNION_R34_NE REUNION_R34_SE REUNION_R34_SW REUNION_R34_NW REUNION_R50_NE REUNION_R50_SE REUNION_R50_SW REUNION_R50_NW REUNION_R64_NE REUNION_R64_SE REUNION_R64_SW REUNION_R64_NW BOM_LAT BOM_LON BOM_TYPE BOM_WIND BOM_PRES BOM_TNUM BOM_CI BOM_RMW BOM_R34_NE BOM_R34_SE BOM_R34_SW BOM_R34_NW BOM_R50_NE BOM_R50_SE BOM_R50_SW BOM_R50_NW BOM_R64_NE BOM_R64_SE BOM_R64_SW BOM_R64_NW BOM_ROCI BOM_POCI BOM_EYE BOM_POS_METHOD BOM_PRES_METHOD NADI_LAT NADI_LON NADI_CAT NADI_WIND NADI_PRES WELLINGTON_LAT WELLINGTON_LON WELLINGTON_WIND WELLINGTON_PRES DS824_LAT DS824_LON DS824_STAGE DS824_WIND DS824_PRES TD9636_LAT TD9636_LON TD9636_STAGE TD9636_WIND TD9636_PRES TD9635_LAT TD9635_LON TD9635_WIND TD9635_PRES TD9635_ROCI NEUMANN_LAT NEUMANN_LON NEUMANN_CLASS NEUMANN_WIND NEUMANN_PRES MLC_LAT MLC_LON MLC_CLASS MLC_WIND MLC_PRES USA_GUST BOM_GUST BOM_GUST_PER REUNION_GUST REUNION_GUST_PER USA_SEAHGT USA_SEARAD_NE USA_SEARAD_SE USA_SEARAD_SW USA_SEARAD_NW STORM_SPEED STORM_DIR
1873046S15056 1873 7 SI MM NOT_NAMED 1873-02-14 18:00:00 NR -14.6000 56.3000 main 627 569 __________O___ -1 -14.6000 56.3000 7 13 233
1873046S15056 1873 7 SI MM NOT_NAMED 1873-02-14 21:00:00 NR -14.9778 55.7786 main 569 515 __________P___ -1 -14.9778 55.7786 7 12 233
1873046S15056 1873 7 SI MM NOT_NAMED 1873-02-15 00:00:00 NR -15.3340 55.2847 main 515 472 __________P___ -1 -15.3340 55.2847 7 11 233
1873046S15056 1873 7 SI MM NOT_NAMED 1873-02-15 03:00:00 NR -15.6481 54.8485 main 461 432 __________P___ -1 -15.6481 54.8485 7 9 233
1873046S15056 1873 7 SI MM NOT_NAMED 1873-02-15 06:00:00 NR -15.9000 54.5000 main 432 412 __________O___ -1 -15.9000 54.5000 7 7 233
1873046S15056 1873 7 SI MM NOT_NAMED 1873-02-15 09:00:00 NR -16.0778 54.2589 main 414 395 __________P___ -1 -16.0778 54.2589 7 5 232
1873046S15056 1873 7 SI MM NOT_NAMED 1873-02-15 12:00:00 NR -16.2018 54.1015 main 395 385 __________P___ -1 -16.2018 54.1015 7 3 229
1873046S15056 1873 7 SI MM NOT_NAMED 1873-02-15 15:00:00 NR -16.2999 53.9935 main 387 377 __________P___ -1 -16.2999 53.9935 7 3 224
1873046S15056 1873 7 SI MM NOT_NAMED 1873-02-15 18:00:00 NR -16.4000 53.9000 main 380 373 __________O___ -1 -16.4000 53.9000 7 3 222
1873046S15056 1873 7 SI MM NOT_NAMED 1873-02-15 21:00:00 NR -16.5428 53.7678 main 373 361 __________P___ -1 -16.5428 53.7678 7 4 220
1873046S15056 1873 7 SI MM NOT_NAMED 1873-02-16 00:00:00 NR -16.6924 53.6424 main 361 356 __________P___ -1 -16.6924 53.6424 7 4 218
1873046S15056 1873 7 SI MM NOT_NAMED 1873-02-16 03:00:00 NR -16.8459 53.5209 main 356 351 __________P___ -1 -16.8459 53.5209 7 4 217
1873046S15056 1873 7 SI MM NOT_NAMED 1873-02-16 06:00:00 NR -17.0000 53.4000 main 356 351 __________O___ -1 -17.0000 53.4000 7 4 219
1873046S15056 1873 7 SI MM NOT_NAMED 1873-02-16 09:00:00 NR -17.1419 53.2709 main 351 341 __________P___ -1 -17.1419 53.2709 7 4 221
1873046S15056 1873 7 SI MM NOT_NAMED 1873-02-16 12:00:00 NR -17.2850 53.1424 main 341 336 __________P___ -1 -17.2850 53.1424 7 4 219
1873046S15056 1873 7 SI MM NOT_NAMED 1873-02-16 15:00:00 NR -17.4356 53.0177 main 336 332 __________P___ -1 -17.4356 53.0177 7 4 216
1873046S15056 1873 7 SI MM NOT_NAMED 1873-02-16 18:00:00 NR -17.6000 52.9000 main 338 334 __________O___ -1 -17.6000 52.9000 7 4 211
1873046S15056 1873 7 SI MM NOT_NAMED 1873-02-16 21:00:00 NR -17.7897 52.7928 main 337 331 __________P___ -1 -17.7897 52.7928 7 4 207
1873046S15056 1873 7 SI MM NOT_NAMED 1873-02-17 00:00:00 NR -17.9925 52.6924 main 335 330 __________P___ -1 -17.9925 52.6924 7 5 204
1873046S15056 1873 7 SI MM NOT_NAMED 1873-02-17 03:00:00 NR -18.1990 52.5959 main 332 324 __________P___ -1 -18.1990 52.5959 7 4 204
1873046S15056 1873 7 SI MM NOT_NAMED 1873-02-17 06:00:00 NR -18.4000 52.5000 main 326 318 __________O___ -1 -18.4000 52.5000 7 4 207
1873046S15056 1873 7 SI MM NOT_NAMED 1873-02-17 09:00:00 NR -18.5863 52.3878 main 319 310 __________P___ -1 -18.5863 52.3878 7 4 210
1873046S15056 1873 7 SI MM NOT_NAMED 1873-02-17 12:00:00 NR -18.7650 52.2775 main 313 302 __________P___ -1 -18.7650 52.2775 7 4 209
1873046S15056 1873 7 SI MM NOT_NAMED 1873-02-17 15:00:00 NR -18.9363 52.1785 main 305 298 __________P___ -1 -18.9363 52.1785 7 4 207
1873046S15056 1873 7 SI MM NOT_NAMED 1873-02-17 18:00:00 NR -19.1000 52.1000 main 301 301 __________O___ -1 -19.1000 52.1000 7 3 201
1873046S15056 1873 7 SI MM NOT_NAMED 1873-02-17 21:00:00 NR -19.2247 52.0573 main 305 300 __________P___ -1 -19.2247 52.0573 7 3 192
1873046S15056 1873 7 SI MM NOT_NAMED 1873-02-18 00:00:00 NR -19.3475 52.0347 main 300 300 __________P___ -1 -19.3475 52.0347 7 3 187
1873046S15056 1873 7 SI MM NOT_NAMED 1873-02-18 03:00:00 NR -19.4965 52.0198 main 307 307 __________P___ -1 -19.4965 52.0198 7 4 185
1873046S15056 1873 7 SI MM NOT_NAMED 1873-02-18 06:00:00 NR -19.7000 52.0000 main 314 314 __________O___ -1 -19.7000 52.0000 7 5 187
1873046S15056 1873 7 SI MM NOT_NAMED 1873-02-18 09:00:00 NR -20.0007 51.9453 main 314 314 __________P___ -1 -20.0007 51.9453 7 7 189
1873046S15056 1873 7 SI MM NOT_NAMED 1873-02-18 12:00:00 NR -20.3550 51.8854 main 326 319 __________P___ -1 -20.3550 51.8854 7 7 188
1873046S15056 1873 7 SI MM NOT_NAMED 1873-02-18 15:00:00 NR -20.7319 51.8328 main 322 322 __________P___ -1 -20.7319 51.8328 7 8 186
1873046S15056 1873 7 SI MM NOT_NAMED 1873-02-18 18:00:00 NR -21.1000 51.8000 main 335 335 __________O___ -1 -21.1000 51.8000 7 6 183
1873046S15056 1873 7 SI MM NOT_NAMED 1873-02-18 21:00:00 NR -21.3737 51.7835 main 349 349 __________P___ -1 -21.3737 51.7835 7 5 0
1873046S15056 1873 7 SI MM NOT_NAMED 1873-02-19 00:00:00 NR -21.6399 51.7906 main 356 356 __________P___ -1 -21.6399 51.7906 7 6 176
1873046S15056 1873 7 SI MM NOT_NAMED 1873-02-19 03:00:00 NR -21.9362 51.8275 main 362 358 __________P___ -1 -21.9362 51.8275 7 7 171
1873046S15056 1873 7 SI MM NOT_NAMED 1873-02-19 06:00:00 NR -22.3000 51.9000 main 366 366 __________O___ -1 -22.3000 51.9000 7 9 169
1873046S15056 1873 7 SI MM NOT_NAMED 1873-02-19 09:00:00 NR -22.8025 52.0055 main 379 379 __________P___ -1 -22.8025 52.0055 7 11 168
1873046S15056 1873 7 SI MM NOT_NAMED 1873-02-19 12:00:00 NR -23.3700 52.1469 main 404 395 __________P___ -1 -23.3700 52.1469 7 12 166
1873046S15056 1873 7 SI MM NOT_NAMED 1873-02-19 15:00:00 NR -23.9525 52.3150 main 431 431 __________P___ -1 -23.9525 52.3150 7 12 164
1873046S15056 1873 7 SI MM NOT_NAMED 1873-02-19 18:00:00 NR -24.5000 52.5000 main 458 458 __________O___ -1 -24.5000 52.5000 7 11 161
1873046S15056 1873 7 SI MM NOT_NAMED 1873-02-19 21:00:00 NR -24.9744 52.6934 main 491 491 __________P___ -1 -24.9744 52.6934 7 10 158
1873046S15056 1873 7 SI MM NOT_NAMED 1873-02-20 00:00:00 NR -25.3851 52.8922 main 519 519 __________P___ -1 -25.3851 52.8922 7 9 155
1873046S15056 1873 7 SI MM NOT_NAMED 1873-02-20 03:00:00 NR -25.7532 53.0948 main 550 550 __________P___ -1 -25.7532 53.0948 7 8 153
1873046S15056 1873 7 SI MM NOT_NAMED 1873-02-20 06:00:00 NR -26.1000 53.3000 main 573 __________O___ -1 -26.1000 53.3000 7 8 152

IBTrACS Databaseについて

本データベースは、米国NOAAが公開する1842年以降の世界の熱帯低気圧のベストトラックデータアーカイブInternational Best Track Archive for Climate Stewardship (IBTrACS)を、ウェブで閲覧しやすい形式に変換したものです。

最終更新日:2021-11-26